createdAt,value
2022-10-23T00:02:54.302Z,3.88
2022-10-23T00:05:45.044Z,3.95
2022-10-23T00:08:35.645Z,3.85
2022-10-23T00:11:27.832Z,3.90
2022-10-23T00:14:21.690Z,3.78
2022-10-23T00:17:12.693Z,3.85
2022-10-23T00:20:03.612Z,3.80
2022-10-23T00:22:54.227Z,3.67
2022-10-23T00:25:44.289Z,4.22
2022-10-23T00:28:34.869Z,3.90
2022-10-23T00:31:25.803Z,4.13
2022-10-23T00:34:15.752Z,3.70
2022-10-23T00:37:05.570Z,4.10
2022-10-23T00:39:55.636Z,3.88
2022-10-23T00:42:45.788Z,4.43
2022-10-23T00:45:35.803Z,3.63
2022-10-23T00:48:27.401Z,4.15
2022-10-23T00:51:18.386Z,3.78
2022-10-23T00:54:25.545Z,4.60
2022-10-23T00:57:16.333Z,3.83
2022-10-23T01:00:06.966Z,4.07
2022-10-23T01:02:57.477Z,4.97
2022-10-23T01:06:03.169Z,4.75
2022-10-23T01:09:15.909Z,4.47
2022-10-23T01:12:20.422Z,4.20
2022-10-23T01:15:22.330Z,4.38
2022-10-23T01:18:24.762Z,4.05
2022-10-23T01:21:23.098Z,4.07
2022-10-23T01:24:45.383Z,4.35
2022-10-23T01:27:45.139Z,4.97
2022-10-23T01:30:42.808Z,4.28
2022-10-23T01:33:41.287Z,4.32
2022-10-23T01:36:33.894Z,4.57
2022-10-23T01:39:33.957Z,4.68
2022-10-23T01:42:39.840Z,4.50
2022-10-23T01:45:40.010Z,5.38
2022-10-23T01:48:34.956Z,5.35
2022-10-23T01:51:28.449Z,5.40
2022-10-23T01:54:29.144Z,4.68
2022-10-23T01:57:22.263Z,4.50
2022-10-23T02:00:15.877Z,4.10
2022-10-23T02:03:18.026Z,4.32
2022-10-23T02:06:08.132Z,4.15
2022-10-23T02:08:58.346Z,4.00
2022-10-23T02:11:54.807Z,3.92
2022-10-23T02:15:03.506Z,4.57
2022-10-23T02:17:59.634Z,4.55
2022-10-23T02:21:00.567Z,4.55
2022-10-23T02:23:56.882Z,4.25
2022-10-23T02:26:53.843Z,4.38
2022-10-23T02:30:05.824Z,4.22
2022-10-23T02:32:58.547Z,4.18
2022-10-23T02:35:49.318Z,3.75
2022-10-23T02:38:44.999Z,3.47
2022-10-23T02:41:41.607Z,3.95
2022-10-23T02:44:33.718Z,3.88
2022-10-23T02:47:34.745Z,4.00
2022-10-23T02:50:37.707Z,4.30
2022-10-23T02:57:04.525Z,4.15
2022-10-23T03:00:03.086Z,4.45
2022-10-23T03:03:17.131Z,3.80
2022-10-23T03:06:07.677Z,4.28
2022-10-23T03:09:03.974Z,3.45
2022-10-23T03:11:54.173Z,4.25
2022-10-23T03:14:44.727Z,3.95
2022-10-23T03:17:34.626Z,4.40
2022-10-23T03:20:25.754Z,5.18
2022-10-23T03:23:15.955Z,4.68
2022-10-23T03:26:06.562Z,5.40
2022-10-23T03:29:04.467Z,5.68
2022-10-23T03:31:55.686Z,6.18
2022-10-23T03:34:46.931Z,5.45
2022-10-23T03:37:37.086Z,5.90
2022-10-23T03:40:27.281Z,6.40
2022-10-23T03:43:17.585Z,5.30
2022-10-23T03:46:12.263Z,5.53
2022-10-23T03:49:02.732Z,5.00
2022-10-23T03:51:52.983Z,5.07
2022-10-23T03:54:44.355Z,4.93
2022-10-23T03:57:34.628Z,4.80
2022-10-23T04:00:25.074Z,4.75
2022-10-23T04:03:15.260Z,4.25
2022-10-23T04:06:05.398Z,4.20
2022-10-23T04:08:55.727Z,4.07
2022-10-23T04:11:45.996Z,4.20
2022-10-23T04:14:36.279Z,3.97
2022-10-23T04:20:18.441Z,3.67
2022-10-23T04:23:08.804Z,3.35
2022-10-23T04:25:59.657Z,4.57
2022-10-23T04:28:50.027Z,8.68
2022-10-23T04:31:40.484Z,4.05
2022-10-23T04:34:30.647Z,4.45
2022-10-23T04:37:20.754Z,10.27
2022-10-23T04:40:11.356Z,3.80
2022-10-23T04:43:02.180Z,4.22
2022-10-23T04:45:56.206Z,3.90
2022-10-23T04:48:46.315Z,3.50
2022-10-23T04:51:47.350Z,3.17
2022-10-23T04:54:56.617Z,3.33
2022-10-23T04:57:52.739Z,3.38
2022-10-23T05:00:47.990Z,4.35
2022-10-23T05:03:44.407Z,4.07
2022-10-23T05:06:34.851Z,4.00
2022-10-23T05:09:54.141Z,4.30
2022-10-23T05:13:02.126Z,4.47
2022-10-23T05:15:53.522Z,3.92
2022-10-23T05:18:47.987Z,4.97
2022-10-23T05:21:40.265Z,5.60
2022-10-23T05:24:30.640Z,6.82
2022-10-23T05:27:28.119Z,5.85
2022-10-23T05:30:19.764Z,5.55
2022-10-23T05:33:11.191Z,5.63
2022-10-23T05:36:05.813Z,4.85
2022-10-23T05:38:57.128Z,5.03
2022-10-23T05:41:47.268Z,4.78
2022-10-23T05:44:43.341Z,9.45
2022-10-23T05:47:53.926Z,5.43
2022-10-23T05:51:11.661Z,5.15
2022-10-23T05:54:09.540Z,5.22
2022-10-23T05:57:04.898Z,5.40
2022-10-23T06:00:07.448Z,10.95
2022-10-23T06:03:06.372Z,5.60
2022-10-23T06:06:03.699Z,4.93
2022-10-23T06:09:12.285Z,4.22
2022-10-23T06:12:03.958Z,4.38
2022-10-23T06:14:55.497Z,3.78
2022-10-23T06:17:53.621Z,4.18
2022-10-23T06:20:44.668Z,3.92
2022-10-23T06:23:45.674Z,4.25
2022-10-23T06:26:55.962Z,3.97
2022-10-23T06:29:58.051Z,4.13
2022-10-23T06:32:47.898Z,4.55
2022-10-23T06:35:38.367Z,3.80
2022-10-23T06:38:29.154Z,3.60
2022-10-23T06:41:21.918Z,3.70
2022-10-23T06:44:17.569Z,3.28
2022-10-23T06:50:46.372Z,3.08
2022-10-23T06:53:44.362Z,3.10
2022-10-23T06:56:55.082Z,3.55
2022-10-23T06:59:53.133Z,3.03
2022-10-23T07:02:48.058Z,3.50
2022-10-23T07:05:38.969Z,3.40
2022-10-23T07:08:29.276Z,3.10
2022-10-23T07:11:20.837Z,2.72
2022-10-23T07:14:13.581Z,3.20
2022-10-23T07:17:05.521Z,2.58
2022-10-23T07:19:56.667Z,3.00
2022-10-23T07:22:52.086Z,2.80
2022-10-23T07:25:50.750Z,2.65
2022-10-23T07:28:47.358Z,2.83
2022-10-23T07:31:42.509Z,2.90
2022-10-23T07:34:52.505Z,3.03
2022-10-23T07:37:48.623Z,2.70
2022-10-23T07:40:38.934Z,2.58
2022-10-23T07:46:28.095Z,2.90
2022-10-23T07:49:18.198Z,2.85
2022-10-23T07:52:08.519Z,2.75
2022-10-23T07:55:18.789Z,2.90
2022-10-23T07:58:22.108Z,2.65
2022-10-23T08:01:37.259Z,2.30
2022-10-23T08:04:27.894Z,2.88
2022-10-23T08:07:31.433Z,2.88
2022-10-23T08:10:21.663Z,2.80
2022-10-23T08:13:13.226Z,2.50
2022-10-23T08:16:22.688Z,2.20
2022-10-23T08:19:31.753Z,2.25
2022-10-23T08:22:22.375Z,2.35
2022-10-23T08:25:14.139Z,2.42
2022-10-23T08:28:06.864Z,2.47
2022-10-23T08:31:16.676Z,2.15
2022-10-23T08:34:22.448Z,2.30
2022-10-23T08:37:15.015Z,2.17
2022-10-23T08:40:05.741Z,1.98
2022-10-23T08:43:41.606Z,1.75
2022-10-23T08:46:49.789Z,1.63
2022-10-23T08:50:11.483Z,1.73
2022-10-23T08:53:27.347Z,1.75
2022-10-23T08:56:33.549Z,1.50
2022-10-23T09:00:22.036Z,1.90
2022-10-23T09:06:52.646Z,1.45
2022-10-23T09:09:49.597Z,1.35
2022-10-23T09:12:40.750Z,1.38
2022-10-23T09:15:44.760Z,1.27
2022-10-23T09:21:27.969Z,1.10
2022-10-23T09:24:20.362Z,1.00
2022-10-23T09:27:16.828Z,1.10
2022-10-23T09:30:07.695Z,1.15
2022-10-23T09:32:58.868Z,1.30
2022-10-23T09:36:06.561Z,1.00
2022-10-23T09:38:59.061Z,1.20
2022-10-23T09:41:48.851Z,0.95
2022-10-23T09:44:48.660Z,0.90
2022-10-23T09:47:39.615Z,1.25
2022-10-23T09:50:30.073Z,1.00
2022-10-23T09:53:40.041Z,0.98
2022-10-23T09:56:32.726Z,0.90
2022-10-23T09:59:32.620Z,0.90
2022-10-23T10:02:28.428Z,0.93
2022-10-23T10:05:41.258Z,1.50
2022-10-23T10:08:46.438Z,1.17
2022-10-23T10:11:46.138Z,1.00
2022-10-23T10:14:55.669Z,0.70
2022-10-23T10:18:12.984Z,0.80
2022-10-23T10:21:23.900Z,0.93
2022-10-23T10:24:16.695Z,0.80
2022-10-23T10:27:21.216Z,0.90
2022-10-23T10:30:22.861Z,0.70
2022-10-23T10:33:22.174Z,0.80
2022-10-23T10:36:27.785Z,1.25
2022-10-23T10:39:33.817Z,0.80
2022-10-23T10:42:26.061Z,0.75
2022-10-23T10:45:26.684Z,0.77
2022-10-23T10:48:49.178Z,0.80
2022-10-23T10:52:30.431Z,0.90
2022-10-23T10:55:40.608Z,0.80
2022-10-23T10:58:42.683Z,0.80
2022-10-23T11:01:40.898Z,0.90
2022-10-23T11:05:01.002Z,0.98
2022-10-23T11:08:13.711Z,0.80
2022-10-23T11:11:13.480Z,0.70
2022-10-23T11:14:03.975Z,0.98
2022-10-23T11:17:18.665Z,0.70
2022-10-23T11:20:28.919Z,0.65
2022-10-23T11:23:28.435Z,0.90
2022-10-23T11:26:47.575Z,1.15
2022-10-23T11:29:59.621Z,0.80
2022-10-23T11:33:08.364Z,0.68
2022-10-23T11:36:11.242Z,0.90
2022-10-23T11:39:16.022Z,0.95
2022-10-23T11:42:06.583Z,1.08
2022-10-23T11:44:57.195Z,0.95
2022-10-23T11:47:57.597Z,0.93
2022-10-23T11:51:18.524Z,0.60
2022-10-23T11:54:15.147Z,1.00
2022-10-23T11:57:11.941Z,1.00
2022-10-23T12:00:01.929Z,0.90
2022-10-23T12:02:58.392Z,0.90
2022-10-23T12:05:59.774Z,0.90
2022-10-23T12:08:53.978Z,0.82
2022-10-23T12:11:47.580Z,1.05
2022-10-23T12:14:39.096Z,1.08
2022-10-23T12:17:35.844Z,1.03
2022-10-23T12:20:35.282Z,1.17
2022-10-23T12:23:33.365Z,1.13
2022-10-23T12:26:38.132Z,0.90
2022-10-23T12:29:27.936Z,1.35
2022-10-23T12:32:43.492Z,0.93
2022-10-23T12:35:58.111Z,1.10
2022-10-23T12:38:49.746Z,0.80
2022-10-23T12:41:39.892Z,0.98
2022-10-23T12:44:30.519Z,1.30
2022-10-23T12:47:21.372Z,1.23
2022-10-23T12:50:24.259Z,0.98
2022-10-23T12:53:16.752Z,1.42
2022-10-23T12:56:07.078Z,1.40
2022-10-23T12:59:00.914Z,1.00
2022-10-23T13:01:53.001Z,1.10
2022-10-23T13:04:43.754Z,0.85
2022-10-23T13:07:43.881Z,1.52
2022-10-23T13:10:36.646Z,0.95
2022-10-23T13:13:29.762Z,1.20
2022-10-23T13:16:23.188Z,1.20
2022-10-23T13:19:27.408Z,1.30
2022-10-23T13:22:22.752Z,1.20
2022-10-23T13:25:32.562Z,1.30
2022-10-23T13:28:26.134Z,1.00
2022-10-23T13:31:16.359Z,1.20
2022-10-23T13:34:28.775Z,1.00
2022-10-23T13:37:30.370Z,1.00
2022-10-23T13:40:25.042Z,1.00
2022-10-23T13:43:18.826Z,0.93
2022-10-23T13:46:16.647Z,1.23
2022-10-23T13:49:06.779Z,1.23
2022-10-23T13:51:57.611Z,1.25
2022-10-23T13:54:48.075Z,1.42
2022-10-23T13:57:38.374Z,1.52
2022-10-23T14:00:28.997Z,1.50
2022-10-23T14:03:20.280Z,1.10
2022-10-23T14:06:10.333Z,1.35
2022-10-23T14:09:12.121Z,1.20
2022-10-23T14:12:02.558Z,1.33
2022-10-23T14:15:12.001Z,1.25
2022-10-23T14:18:07.256Z,1.10
2022-10-23T14:21:02.242Z,1.40
2022-10-23T14:23:53.788Z,1.17
2022-10-23T14:26:43.621Z,2.53
2022-10-23T14:29:33.972Z,8.20
2022-10-23T14:32:24.049Z,10.13
2022-10-23T14:35:23.858Z,11.48
2022-10-23T14:38:14.632Z,11.18
2022-10-23T14:41:11.474Z,5.35
2022-10-23T14:44:01.717Z,4.97
2022-10-23T14:46:53.009Z,5.53
2022-10-23T14:49:56.272Z,3.80
2022-10-23T14:52:46.588Z,2.35
2022-10-23T14:55:37.037Z,1.80
2022-10-23T14:58:28.423Z,1.88
2022-10-23T15:01:43.710Z,2.22
2022-10-23T15:04:38.158Z,3.03
2022-10-23T15:07:28.275Z,3.15
2022-10-23T15:10:19.166Z,3.88
2022-10-23T15:13:09.413Z,10.45
2022-10-23T15:16:05.637Z,10.52
2022-10-23T15:18:56.071Z,7.55
2022-10-23T15:21:47.612Z,8.85
2022-10-23T15:24:38.079Z,7.10
2022-10-23T15:27:28.340Z,6.50
2022-10-23T15:30:18.363Z,4.95
2022-10-23T15:33:08.256Z,4.45
2022-10-23T15:35:58.593Z,5.05
2022-10-23T15:38:49.138Z,4.80
2022-10-23T15:41:41.560Z,3.53
2022-10-23T15:44:33.706Z,3.78
2022-10-23T15:47:23.774Z,4.18
2022-10-23T15:50:13.907Z,3.83
2022-10-23T15:53:04.394Z,4.60
2022-10-23T15:55:55.570Z,5.00
2022-10-23T15:58:46.055Z,3.70
2022-10-23T16:01:38.216Z,3.15
2022-10-23T16:04:28.619Z,2.80
2022-10-23T16:07:18.626Z,3.00
2022-10-23T16:10:09.043Z,2.88
2022-10-23T16:12:59.460Z,3.72
2022-10-23T16:15:49.444Z,3.75
2022-10-23T16:18:40.682Z,3.28
2022-10-23T16:21:34.269Z,3.45
2022-10-23T16:24:24.489Z,3.60
2022-10-23T16:27:14.736Z,3.03
2022-10-23T16:30:08.934Z,2.60
2022-10-23T16:32:58.737Z,3.50
2022-10-23T16:35:48.974Z,3.03
2022-10-23T16:38:44.515Z,2.65
2022-10-23T16:41:35.024Z,2.35
2022-10-23T16:44:27.337Z,2.30
2022-10-23T16:47:22.200Z,2.00
2022-10-23T16:50:12.412Z,2.70
2022-10-23T16:53:02.611Z,3.05
2022-10-23T16:55:52.606Z,2.42
2022-10-23T16:58:42.769Z,2.53
2022-10-23T17:01:33.627Z,2.50
2022-10-23T17:04:23.886Z,2.65
2022-10-23T17:07:14.569Z,2.75
2022-10-23T17:10:05.387Z,2.50
2022-10-23T17:12:55.974Z,2.35
2022-10-23T17:15:46.980Z,3.03
2022-10-23T17:18:43.901Z,5.20
2022-10-23T17:21:37.360Z,5.25
2022-10-23T17:24:28.245Z,4.82
2022-10-23T17:27:18.789Z,4.68
2022-10-23T17:30:12.641Z,4.47
2022-10-23T17:35:53.428Z,4.80
2022-10-23T17:38:44.210Z,4.38
2022-10-23T17:41:34.773Z,6.90
2022-10-23T17:44:27.421Z,6.40
2022-10-23T17:47:17.771Z,7.03
2022-10-23T17:50:09.505Z,5.85
2022-10-23T17:53:00.121Z,4.28
2022-10-23T17:55:50.419Z,2.72
2022-10-23T17:58:40.769Z,2.72
2022-10-23T18:01:31.253Z,2.70
2022-10-23T18:04:21.672Z,2.95
2022-10-23T18:07:11.607Z,2.80
2022-10-23T18:10:02.232Z,5.40
2022-10-23T18:12:52.498Z,4.75
2022-10-23T18:15:43.076Z,5.20
2022-10-23T18:18:34.446Z,4.90
2022-10-23T18:21:24.918Z,5.40
2022-10-23T18:24:15.473Z,6.53
2022-10-23T18:27:07.006Z,6.75
2022-10-23T18:29:57.495Z,5.57
2022-10-23T18:32:47.645Z,5.68
2022-10-23T18:35:37.778Z,5.50
2022-10-23T18:38:27.899Z,3.97
2022-10-23T18:41:18.929Z,3.83
2022-10-23T18:44:10.955Z,3.72
2022-10-23T18:47:01.481Z,3.22
2022-10-23T18:49:51.868Z,3.80
2022-10-23T18:52:47.955Z,3.22
2022-10-23T18:55:45.478Z,3.28
2022-10-23T18:58:35.457Z,3.38
2022-10-23T19:01:27.165Z,3.78
2022-10-23T19:04:18.565Z,3.38
2022-10-23T19:07:08.681Z,2.90
2022-10-23T19:09:59.946Z,3.40
2022-10-23T19:12:50.204Z,3.05
2022-10-23T19:15:40.677Z,3.65
2022-10-23T19:18:33.162Z,3.58
2022-10-23T19:21:31.025Z,3.15
2022-10-23T19:24:38.449Z,3.55
2022-10-23T19:27:29.951Z,3.60
2022-10-23T19:30:22.803Z,3.33
2022-10-23T19:33:13.150Z,3.67
2022-10-23T19:36:05.385Z,4.20
2022-10-23T19:38:56.881Z,3.50
2022-10-23T19:41:47.491Z,3.30
2022-10-23T19:44:38.179Z,3.47
2022-10-23T19:47:31.477Z,3.45
2022-10-23T19:50:22.710Z,3.13
2022-10-23T19:53:12.902Z,5.63
2022-10-23T19:56:07.853Z,3.45
2022-10-23T19:59:00.350Z,3.30
2022-10-23T20:01:50.701Z,3.75
2022-10-23T20:04:41.068Z,3.42
2022-10-23T20:07:36.246Z,2.80
2022-10-23T20:10:26.577Z,3.22
2022-10-23T20:13:20.633Z,3.28
2022-10-23T20:16:20.437Z,2.90
2022-10-23T20:19:12.937Z,3.00
2022-10-23T20:22:03.480Z,2.65
2022-10-23T20:24:53.756Z,3.47
2022-10-23T20:27:43.925Z,3.25
2022-10-23T20:30:33.993Z,2.80
2022-10-23T20:33:24.341Z,3.13
2022-10-23T20:36:25.157Z,3.50
2022-10-23T20:39:21.103Z,3.00
2022-10-23T20:42:11.022Z,3.55
2022-10-23T20:45:01.301Z,2.70
2022-10-23T20:47:51.342Z,3.10
2022-10-23T20:50:41.267Z,3.72
2022-10-23T20:53:31.578Z,3.35
2022-10-23T20:56:31.179Z,3.08
2022-10-23T20:59:21.379Z,2.90
2022-10-23T21:02:11.530Z,2.78
2022-10-23T21:05:01.973Z,3.53
2022-10-23T21:07:51.780Z,2.88
2022-10-23T21:10:46.487Z,3.08
2022-10-23T21:13:36.808Z,2.50
2022-10-23T21:16:35.529Z,2.55
2022-10-23T21:19:25.940Z,2.58
2022-10-23T21:22:16.119Z,2.13
2022-10-23T21:25:06.445Z,2.55
2022-10-23T21:27:56.822Z,1.98
2022-10-23T21:30:46.703Z,1.95
2022-10-23T21:33:36.994Z,2.10
2022-10-23T21:36:28.984Z,2.10
2022-10-23T21:39:19.343Z,1.60
2022-10-23T21:42:09.933Z,1.90
2022-10-23T21:45:00.137Z,1.65
2022-10-23T21:47:50.148Z,2.05
2022-10-23T21:50:40.166Z,1.65
2022-10-23T21:53:30.682Z,1.90
2022-10-23T21:56:45.357Z,1.90
2022-10-23T21:59:36.278Z,1.30
2022-10-23T22:02:26.877Z,2.05
2022-10-23T22:05:17.082Z,1.20
2022-10-23T22:08:07.137Z,1.02
2022-10-23T22:10:57.380Z,1.50
2022-10-23T22:13:47.662Z,1.45
2022-10-23T22:16:37.646Z,1.23
2022-10-23T22:19:27.877Z,1.85
2022-10-23T22:22:17.797Z,1.13
2022-10-23T22:25:08.206Z,1.65
2022-10-23T22:27:58.238Z,2.00
2022-10-23T22:30:48.340Z,0.95
2022-10-23T22:33:38.287Z,0.73
2022-10-23T22:36:28.214Z,0.82
2022-10-23T22:39:18.178Z,1.45
2022-10-23T22:42:08.472Z,1.00
2022-10-23T22:44:58.713Z,1.00
2022-10-23T22:47:48.615Z,0.75
2022-10-23T22:50:38.497Z,1.40
2022-10-23T22:53:28.466Z,0.90
2022-10-23T22:56:22.189Z,1.40
2022-10-23T22:59:12.303Z,1.20
2022-10-23T23:02:02.103Z,1.40
2022-10-23T23:04:52.082Z,1.23
2022-10-23T23:07:42.218Z,1.02
2022-10-23T23:10:32.520Z,1.23
2022-10-23T23:13:23.639Z,0.90
2022-10-23T23:16:18.840Z,1.33
2022-10-23T23:19:11.135Z,1.10
2022-10-23T23:22:01.356Z,1.90
2022-10-23T23:24:51.682Z,0.82
2022-10-23T23:27:41.719Z,1.52
2022-10-23T23:30:31.951Z,0.90
2022-10-23T23:33:23.805Z,1.20
2022-10-23T23:36:19.447Z,1.58
2022-10-23T23:39:10.103Z,1.10
2022-10-23T23:42:00.589Z,0.70
2022-10-23T23:45:02.455Z,0.90
2022-10-23T23:47:53.110Z,1.30
2022-10-23T23:50:42.991Z,1.38
2022-10-23T23:53:33.045Z,1.10
2022-10-23T23:56:23.179Z,1.20
2022-10-23T23:59:13.407Z,1.20
